LKPR - Praha Ruzyně, Česká republika
Vzdálenost od této stanice: ZSZ 177km
Aktualizováno: 21.08.2018 16:30
 
Teplota vzduchu: 26°C
Vítr: S 13 km/h
Rosný bod: 13°C
Vlhkost vzduchu: 45%
Tlak vzduchu: 1020 hPa
Stav počasí: Jasno
Oblačnost: jasná obloha
Viditelnost: více než 10 km
2018/08/21 14:30 LKPR 211430Z 01007KT 330V050 CAVOK 26/13 Q1020 NOSIG
LKTB - Brno Tuřany, Česká republika
Vzdálenost od této stanice: VJV 28km
Aktualizováno: 21.08.2018 16:30
 
Teplota vzduchu: 31°C
Vítr: proměnlivý 7 km/h
Rosný bod: 12°C
Vlhkost vzduchu: 31%
Tlak vzduchu: 1018 hPa
Stav počasí: Jasno
Oblačnost: jasná obloha
Viditelnost: více než 10 km
2018/08/21 14:30 LKTB 211430Z VRB04KT CAVOK 31/12 Q1018 NOSIG
 
LKKV - Karlovy Vary, Česká republika
Vzdálenost od této stanice: SZ 268km
Aktualizováno: 21.08.2018 16:30
 
Teplota vzduchu: 25°C
Vítr: SV 9 km/h
Rosný bod: 12°C
Vlhkost vzduchu: 44%
Tlak vzduchu: 1021 hPa
Stav počasí: Jasno
Oblačnost: jasná obloha
Viditelnost: více než 10 km
2018/08/21 14:30 LKKV 211430Z 05005KT 010V110 CAVOK 25/12 Q1021
LKMT - Ostrava Mošnov, Česká republika
Vzdálenost od této stanice: VSV 136km
Aktualizováno: 21.08.2018 16:30
 
Teplota vzduchu: 27°C
Vítr: SV 19 km/h
Rosný bod: 12°C
Vlhkost vzduchu: 39%
Tlak vzduchu: 1019 hPa
Stav počasí: Jasno
Oblačnost: jasná obloha
Viditelnost: více než 10 km
2018/08/21 14:30 LKMT 211430Z 05010KT 010V080 CAVOK 27/12 Q1019 NOSIG
 
LKPD - Pardubice, Česká republika
Vzdálenost od této stanice: SSZ 97km
Aktualizováno: 21.08.2018 16:00
 
Teplota vzduchu: 27°C
Vítr: SZ 13 km/h
Rosný bod: 12°C
Vlhkost vzduchu: 39%
Tlak vzduchu: 1019 hPa
Stav počasí: Jasno
Oblačnost: jasná obloha
Viditelnost: více než 10 km
2018/08/21 14:00 LKPD 211400Z 32007KT 270V020 CAVOK 27/12 Q1019 NOSIG
LKKB - Praha Kbely, Česká republika
Vzdálenost od této stanice: SZ 162km
Aktualizováno: 21.08.2018 16:00
 
Teplota vzduchu: 26°C
Vítr: S 11 km/h
Rosný bod: 14°C
Vlhkost vzduchu: 48%
Tlak vzduchu: 1019 hPa
Stav počasí: Jasno
Oblačnost: jasná obloha
Viditelnost: více než 10 km
2018/08/21 14:00 LKKB 211400Z 35006KT 300V030 CAVOK 26/14 Q1019 NOSIG
 
LKCV - Čáslav, Česká republika
Vzdálenost od této stanice: SZ 103km
Aktualizováno: 21.08.2018 16:00
 
Teplota vzduchu: 28°C
Index horka: 27°C
Vítr: SZ 9 km/h
Rosný bod: 13°C
Vlhkost vzduchu: 40%
Tlak vzduchu: 1019 hPa
Stav počasí: Jasno
Oblačnost: jasná obloha
Viditelnost: více než 10 km
2018/08/21 14:00 LKCV 211400Z 31005KT 250V360 CAVOK 28/13 Q1019 NOSIG
LKNA - Náměšť n. Osl., Česká republika
Vzdálenost od této stanice: ZJZ 19km
Aktualizováno: 21.08.2018 16:00
 
Teplota vzduchu: 28°C
Vítr: SZ 11 km/h
Rosný bod: 10°C
Vlhkost vzduchu: 32%
Tlak vzduchu: 1019 hPa
Stav počasí: Jasno
Oblačnost: jasná obloha
Viditelnost: více než 10 km
2018/08/21 14:00 LKNA 211400Z 31006KT 250V050 CAVOK 28/10 Q1019 NOSIG
 
LKLN - Plzeň Líně, Česká republika
Vzdálenost od této stanice: Z 228km
Aktualizováno: 21.08.2018 16:00
 
Teplota vzduchu: 29°C
Vítr: VSV 7 km/h
Rosný bod: 10°C
Vlhkost vzduchu: 31%
Tlak vzduchu: 1019 hPa
Stav počasí: Jasno
Oblačnost: jasná obloha
Viditelnost: více než 10 km
2018/08/21 14:00 LKLN 211400Z AUTO 06004KT 330V130 CAVOK 29/10 Q1019
LKVO - Vodochody, Česká republika
Vzdálenost od této stanice: SZ 177km
Aktualizováno: 21.08.2018 16:00
 
Teplota vzduchu: 27°C
Vítr: SSV 9 km/h
Rosný bod: 12°C
Vlhkost vzduchu: 39%
Tlak vzduchu: 1020 hPa
Stav počasí: Jasno
Oblačnost: jasná obloha
Viditelnost: více než 10 km
2018/08/21 14:00 LKVO 211400Z 03005KT 260V080 CAVOK 27/12 Q1020